createdAt,value
2022-12-04T00:01:27.924Z,5.16
2022-12-04T00:04:00.204Z,5.11
2022-12-04T00:06:28.732Z,5.12
2022-12-04T00:08:56.324Z,5.07
2022-12-04T00:11:29.426Z,5.06
2022-12-04T00:14:03.010Z,5.05
2022-12-04T00:16:33.633Z,5.03
2022-12-04T00:19:00.808Z,5.01
2022-12-04T00:21:28.101Z,5.05
2022-12-04T00:23:55.339Z,5.06
2022-12-04T00:26:27.390Z,5.09
2022-12-04T00:28:55.503Z,5.10
2022-12-04T00:31:28.188Z,5.10
2022-12-04T00:33:56.021Z,5.10
2022-12-04T00:36:27.741Z,5.09
2022-12-04T00:38:55.594Z,5.07
2022-12-04T00:41:27.160Z,5.09
2022-12-04T00:43:54.793Z,5.08
2022-12-04T00:46:23.241Z,5.09
2022-12-04T00:48:51.798Z,5.08
2022-12-04T00:51:24.144Z,5.08
2022-12-04T00:53:52.873Z,5.08
2022-12-04T00:56:25.957Z,5.10
2022-12-04T00:58:57.499Z,5.08
2022-12-04T01:01:26.907Z,5.14
2022-12-04T01:03:56.264Z,5.15
2022-12-04T01:06:29.674Z,5.14
2022-12-04T01:08:58.944Z,5.15
2022-12-04T01:11:28.826Z,5.15
2022-12-04T01:13:57.942Z,5.13
2022-12-04T01:16:43.537Z,5.10
2022-12-04T01:19:12.511Z,5.17
2022-12-04T01:21:40.550Z,5.17
2022-12-04T01:24:08.812Z,5.13
2022-12-04T01:26:36.202Z,5.12
2022-12-04T01:29:04.112Z,5.13
2022-12-04T01:31:31.640Z,5.20
2022-12-04T01:33:59.504Z,5.17
2022-12-04T01:36:28.602Z,5.14
2022-12-04T01:38:57.113Z,5.19
2022-12-04T01:41:30.113Z,5.23
2022-12-04T01:44:24.585Z,5.26
2022-12-04T01:47:01.235Z,5.22
2022-12-04T01:49:46.643Z,5.22
2022-12-04T01:52:24.469Z,5.22
2022-12-04T01:54:59.807Z,5.22
2022-12-04T01:57:31.622Z,5.24
2022-12-04T02:00:08.128Z,5.27
2022-12-04T02:02:40.616Z,5.23
2022-12-04T02:05:15.295Z,5.23
2022-12-04T02:07:45.183Z,5.21
2022-12-04T02:10:13.878Z,5.21
2022-12-04T02:12:56.115Z,5.19
2022-12-04T02:15:43.492Z,5.20
2022-12-04T02:18:41.253Z,5.21
2022-12-04T02:21:20.354Z,5.20
2022-12-04T02:24:33.571Z,5.19
2022-12-04T02:27:18.068Z,5.20
2022-12-04T02:29:54.524Z,5.20
2022-12-04T02:33:08.308Z,5.21
2022-12-04T02:36:13.166Z,5.23
2022-12-04T02:38:53.719Z,5.21
2022-12-04T02:41:35.928Z,5.20
2022-12-04T02:44:49.196Z,5.21
2022-12-04T02:47:24.264Z,5.21
2022-12-04T02:50:00.685Z,5.22
2022-12-04T02:52:41.963Z,5.23
2022-12-04T02:55:24.129Z,5.23
2022-12-04T02:58:09.854Z,5.26
2022-12-04T03:00:38.393Z,5.24
2022-12-04T03:03:24.581Z,5.26
2022-12-04T03:06:07.081Z,5.28
2022-12-04T03:08:51.800Z,5.31
2022-12-04T03:11:19.047Z,5.34
2022-12-04T03:14:02.131Z,5.27
2022-12-04T03:16:40.141Z,5.26
2022-12-04T03:19:29.893Z,5.26
2022-12-04T03:22:03.674Z,5.24
2022-12-04T03:24:54.263Z,5.21
2022-12-04T03:27:54.747Z,5.21
2022-12-04T03:30:23.807Z,5.19
2022-12-04T03:33:19.572Z,5.21
2022-12-04T03:36:08.389Z,5.23
2022-12-04T03:38:58.323Z,5.22
2022-12-04T03:41:55.900Z,5.20
2022-12-04T03:44:40.063Z,5.20
2022-12-04T03:47:58.905Z,5.18
2022-12-04T03:51:27.605Z,5.19
2022-12-04T03:54:11.805Z,5.19
2022-12-04T03:56:55.209Z,5.17
2022-12-04T03:59:44.046Z,5.19
2022-12-04T04:02:18.332Z,5.19
2022-12-04T04:04:54.464Z,5.19
2022-12-04T04:07:35.633Z,5.19
2022-12-04T04:10:16.453Z,5.20
2022-12-04T04:13:21.153Z,5.20
2022-12-04T04:16:14.412Z,5.19
2022-12-04T04:19:01.826Z,5.20
2022-12-04T04:21:54.652Z,5.22
2022-12-04T04:24:48.906Z,5.21
2022-12-04T04:27:16.164Z,5.22
2022-12-04T04:29:51.894Z,5.22
2022-12-04T04:33:12.998Z,5.22
2022-12-04T04:36:01.925Z,5.22
2022-12-04T04:38:55.003Z,5.23
2022-12-04T04:41:41.572Z,5.24
2022-12-04T04:44:30.653Z,5.24
2022-12-04T04:47:06.848Z,5.28
2022-12-04T04:49:37.018Z,5.26
2022-12-04T04:52:04.588Z,5.26
2022-12-04T04:54:33.925Z,5.28
2022-12-04T04:57:01.065Z,5.29
2022-12-04T04:59:28.268Z,5.33
2022-12-04T05:01:56.809Z,5.35
2022-12-04T05:04:24.069Z,5.34
2022-12-04T05:06:51.330Z,5.36
2022-12-04T05:09:18.562Z,5.35
2022-12-04T05:11:45.733Z,5.40
2022-12-04T05:14:12.869Z,5.39
2022-12-04T05:16:41.596Z,5.38
2022-12-04T05:19:27.762Z,5.34
2022-12-04T05:21:54.795Z,5.33
2022-12-04T05:24:22.030Z,5.33
2022-12-04T05:26:49.205Z,5.32
2022-12-04T05:29:16.344Z,5.32
2022-12-04T05:31:43.548Z,5.32
2022-12-04T05:34:10.732Z,5.30
2022-12-04T05:36:37.895Z,5.27
2022-12-04T05:39:05.109Z,5.25
2022-12-04T05:41:32.351Z,5.23
2022-12-04T05:43:59.693Z,5.23
2022-12-04T05:46:26.962Z,5.19
2022-12-04T05:48:54.143Z,5.18
2022-12-04T05:51:21.321Z,5.17
2022-12-04T05:53:51.484Z,5.18
2022-12-04T05:56:18.713Z,5.18
2022-12-04T05:58:45.819Z,5.15
2022-12-04T06:01:21.760Z,5.16
2022-12-04T06:03:49.436Z,5.15
2022-12-04T06:06:24.761Z,5.16
2022-12-04T06:08:57.753Z,5.22
2022-12-04T06:11:35.066Z,5.24
2022-12-04T06:14:06.322Z,5.22
2022-12-04T06:16:43.036Z,5.20
2022-12-04T06:19:16.292Z,5.25
2022-12-04T06:21:48.431Z,5.28
2022-12-04T06:24:24.676Z,5.19
2022-12-04T06:27:26.165Z,5.18
2022-12-04T06:29:45.740Z,5.14
2022-12-04T06:32:17.797Z,5.12
2022-12-04T06:34:54.180Z,5.15
2022-12-04T06:37:24.392Z,5.13
2022-12-04T06:39:51.607Z,5.11
2022-12-04T06:42:18.815Z,5.11
2022-12-04T06:44:46.182Z,5.15
2022-12-04T06:47:13.433Z,5.29
2022-12-04T06:49:40.826Z,5.25
2022-12-04T06:52:08.128Z,5.28
2022-12-04T06:54:35.359Z,5.28
2022-12-04T06:57:02.593Z,5.28
2022-12-04T06:59:30.019Z,5.28
2022-12-04T07:01:57.244Z,5.26
2022-12-04T07:04:24.704Z,5.27
2022-12-04T07:06:51.931Z,5.26
2022-12-04T07:09:19.187Z,5.30
2022-12-04T07:11:46.899Z,5.31
2022-12-04T07:14:14.936Z,5.30
2022-12-04T07:16:42.984Z,5.29
2022-12-04T07:19:13.655Z,5.25
2022-12-04T07:21:41.954Z,5.26
2022-12-04T07:24:15.713Z,5.29
2022-12-04T07:26:43.070Z,5.32
2022-12-04T07:29:10.730Z,5.31
2022-12-04T07:31:38.860Z,5.32
2022-12-04T07:34:06.242Z,5.28
2022-12-04T07:36:33.460Z,5.29
2022-12-04T07:39:00.712Z,5.29
2022-12-04T07:41:27.980Z,5.27
2022-12-04T07:43:55.325Z,5.27
2022-12-04T07:46:27.657Z,5.31
2022-12-04T07:48:57.018Z,5.32
2022-12-04T07:51:28.282Z,5.30
2022-12-04T07:54:03.126Z,5.30
2022-12-04T07:56:32.372Z,5.31
2022-12-04T07:59:00.272Z,5.30
2022-12-04T08:01:27.917Z,5.32
2022-12-04T08:03:58.955Z,5.31
2022-12-04T08:06:29.577Z,5.36
2022-12-04T08:08:57.395Z,5.39
2022-12-04T08:11:28.104Z,5.45
2022-12-04T08:14:06.136Z,5.47
2022-12-04T08:16:33.722Z,5.47
2022-12-04T08:19:01.616Z,5.44
2022-12-04T08:21:31.246Z,5.45
2022-12-04T08:24:00.382Z,5.45
2022-12-04T08:26:30.502Z,5.43
2022-12-04T08:28:58.585Z,5.49
2022-12-04T08:31:30.914Z,5.53
2022-12-04T08:34:02.657Z,5.53
2022-12-04T08:36:30.478Z,5.46
2022-12-04T08:38:57.691Z,5.48
2022-12-04T08:41:26.712Z,5.54
2022-12-04T08:43:56.327Z,5.56
2022-12-04T08:46:25.858Z,5.57
2022-12-04T08:48:55.201Z,5.60
2022-12-04T08:51:27.910Z,5.55
2022-12-04T08:54:03.429Z,5.57
2022-12-04T08:56:32.325Z,5.60
2022-12-04T08:59:00.922Z,5.63
2022-12-04T09:01:30.303Z,5.58
2022-12-04T09:03:58.102Z,5.58
2022-12-04T09:06:25.889Z,5.65
2022-12-04T09:08:55.570Z,5.64
2022-12-04T09:11:27.952Z,5.63
2022-12-04T09:13:55.876Z,5.67
2022-12-04T09:16:26.021Z,5.68
2022-12-04T09:18:54.705Z,5.68
2022-12-04T09:21:24.043Z,5.71
2022-12-04T09:23:51.796Z,5.77
2022-12-04T09:26:29.846Z,5.78
2022-12-04T09:29:01.280Z,5.77
2022-12-04T09:31:29.151Z,5.69
2022-12-04T09:33:59.666Z,5.68
2022-12-04T09:36:27.611Z,5.69
2022-12-04T09:38:55.280Z,5.69
2022-12-04T09:42:00.347Z,5.72
2022-12-04T09:44:36.616Z,5.69
2022-12-04T09:47:23.165Z,5.69
2022-12-04T09:50:31.260Z,5.71
2022-12-04T09:53:09.042Z,5.71
2022-12-04T09:56:12.478Z,5.65
2022-12-04T09:59:06.072Z,5.70
2022-12-04T10:02:24.140Z,5.71
2022-12-04T10:04:51.416Z,5.73
2022-12-04T10:08:02.507Z,5.69
2022-12-04T10:11:04.693Z,5.67
2022-12-04T10:14:14.667Z,5.62
2022-12-04T10:17:57.997Z,5.61
2022-12-04T10:21:00.542Z,5.63
2022-12-04T10:23:50.886Z,5.67
2022-12-04T10:26:23.818Z,5.62
2022-12-04T10:29:02.969Z,5.56
2022-12-04T10:31:32.722Z,5.61
2022-12-04T10:34:16.705Z,5.65
2022-12-04T10:36:53.682Z,5.70
2022-12-04T10:39:28.314Z,5.71
2022-12-04T10:42:37.824Z,5.63
2022-12-04T10:45:07.105Z,5.72
2022-12-04T10:47:35.448Z,5.68
2022-12-04T10:50:20.853Z,5.68
2022-12-04T10:52:48.343Z,5.55
2022-12-04T10:55:16.244Z,5.52
2022-12-04T10:57:46.792Z,5.60
2022-12-04T11:00:36.057Z,5.63
2022-12-04T11:03:23.108Z,5.54
2022-12-04T11:06:06.893Z,5.62
2022-12-04T11:08:44.724Z,5.64
2022-12-04T11:11:15.711Z,5.73
2022-12-04T11:13:43.196Z,5.77
2022-12-04T11:16:46.119Z,5.77
2022-12-04T11:19:33.694Z,5.83
2022-12-04T11:22:16.662Z,5.84
2022-12-04T11:24:55.579Z,5.93
2022-12-04T11:27:32.348Z,5.87
2022-12-04T11:30:13.479Z,5.87
2022-12-04T11:32:42.035Z,5.93
2022-12-04T11:35:28.724Z,6.16
2022-12-04T11:38:15.580Z,6.22
2022-12-04T11:42:27.904Z,6.03
2022-12-04T11:45:02.505Z,6.00
2022-12-04T11:47:33.013Z,6.06
2022-12-04T11:50:48.097Z,6.12
2022-12-04T11:53:42.368Z,6.22
2022-12-04T11:56:42.993Z,6.18
2022-12-04T11:59:49.520Z,6.12
2022-12-04T12:03:09.107Z,6.12
2022-12-04T12:06:07.365Z,6.11
2022-12-04T12:09:03.690Z,6.11
2022-12-04T12:11:52.412Z,6.12
2022-12-04T12:15:12.423Z,6.22
2022-12-04T12:17:59.928Z,6.23
2022-12-04T12:21:06.174Z,6.28
2022-12-04T12:24:15.893Z,6.30
2022-12-04T12:27:33.578Z,6.27
2022-12-04T12:30:21.769Z,6.28
2022-12-04T12:32:58.508Z,6.33
2022-12-04T12:35:55.610Z,6.38
2022-12-04T12:38:32.507Z,6.56
2022-12-04T12:41:17.495Z,6.63
2022-12-04T12:44:19.396Z,6.83
2022-12-04T12:46:56.820Z,7.07
2022-12-04T12:50:14.947Z,7.16
2022-12-04T12:53:02.105Z,7.24
2022-12-04T12:55:43.072Z,6.97
2022-12-04T12:58:53.588Z,7.06
2022-12-04T13:01:44.029Z,6.88
2022-12-04T13:04:40.355Z,6.86
2022-12-04T13:07:47.625Z,7.03
2022-12-04T13:10:41.678Z,7.17
2022-12-04T13:13:22.445Z,7.33
2022-12-04T13:16:15.009Z,7.36
2022-12-04T13:19:07.839Z,7.27
2022-12-04T13:22:17.623Z,7.15
2022-12-04T13:25:08.864Z,6.99
2022-12-04T13:28:00.239Z,6.99
2022-12-04T13:31:45.371Z,6.86
2022-12-04T13:34:52.964Z,6.83
2022-12-04T13:38:31.828Z,6.88
2022-12-04T13:41:07.312Z,6.95
2022-12-04T13:43:48.529Z,7.02
2022-12-04T13:46:39.593Z,7.05
2022-12-04T13:49:19.003Z,7.06
2022-12-04T13:51:50.728Z,7.15
2022-12-04T13:54:17.703Z,7.25
2022-12-04T13:56:57.212Z,7.21
2022-12-04T13:59:28.115Z,7.32
2022-12-04T14:02:06.444Z,7.32
2022-12-04T14:04:53.156Z,7.35
2022-12-04T14:07:34.273Z,7.39
2022-12-04T14:10:25.373Z,7.31
2022-12-04T14:13:20.192Z,7.24
2022-12-04T14:15:48.073Z,7.19
2022-12-04T14:18:28.379Z,7.18
2022-12-04T14:21:04.906Z,7.04
2022-12-04T14:23:42.478Z,6.90
2022-12-04T14:27:10.038Z,6.87
2022-12-04T14:29:27.973Z,6.89
2022-12-04T14:32:00.732Z,6.84
2022-12-04T14:34:33.901Z,6.79
2022-12-04T14:37:05.054Z,6.82
2022-12-04T14:39:45.744Z,6.79
2022-12-04T14:42:38.738Z,6.77
2022-12-04T14:45:24.622Z,6.77
2022-12-04T14:48:34.013Z,6.78
2022-12-04T14:51:38.231Z,6.80
2022-12-04T14:54:35.620Z,6.79
2022-12-04T14:57:49.631Z,6.79
2022-12-04T15:00:24.203Z,6.81
2022-12-04T15:02:59.148Z,6.81
2022-12-04T15:05:30.744Z,6.83
2022-12-04T15:08:03.031Z,6.81
2022-12-04T15:10:53.602Z,6.80
2022-12-04T15:13:33.214Z,6.79
2022-12-04T15:16:13.296Z,6.78
2022-12-04T15:18:40.517Z,6.74
2022-12-04T15:21:10.494Z,6.74
2022-12-04T15:23:41.573Z,6.71
2022-12-04T15:26:17.655Z,6.68
2022-12-04T15:29:01.614Z,6.63
2022-12-04T15:31:37.726Z,6.59
2022-12-04T15:34:15.639Z,6.59
2022-12-04T15:37:06.211Z,6.57
2022-12-04T15:39:35.688Z,6.58
2022-12-04T15:42:24.538Z,6.51
2022-12-04T15:45:07.904Z,6.53
2022-12-04T15:47:42.096Z,6.51
2022-12-04T15:50:21.747Z,6.51
2022-12-04T15:53:06.301Z,6.51
2022-12-04T15:55:48.623Z,6.44
2022-12-04T15:59:00.206Z,6.41
2022-12-04T16:01:38.339Z,6.40
2022-12-04T16:04:05.670Z,6.39
2022-12-04T16:06:34.984Z,6.38
2022-12-04T16:09:17.404Z,6.39
2022-12-04T16:11:44.860Z,6.39
2022-12-04T16:14:11.873Z,6.40
2022-12-04T16:16:46.169Z,6.35
2022-12-04T16:19:33.150Z,6.38
2022-12-04T16:22:23.410Z,6.35
2022-12-04T16:24:51.365Z,6.34
2022-12-04T16:27:23.963Z,6.41
2022-12-04T16:29:52.882Z,6.45
2022-12-04T16:32:27.528Z,6.45
2022-12-04T16:34:55.398Z,6.45
2022-12-04T16:37:24.032Z,6.46
2022-12-04T16:39:51.345Z,6.42
2022-12-04T16:42:28.827Z,6.35
2022-12-04T16:44:56.598Z,6.36
2022-12-04T16:47:24.099Z,6.31
2022-12-04T16:49:53.260Z,6.28
2022-12-04T16:52:21.147Z,6.31
2022-12-04T16:54:48.484Z,6.30
2022-12-04T16:57:15.723Z,6.27
2022-12-04T16:59:42.968Z,6.30
2022-12-04T17:02:26.332Z,6.29
2022-12-04T17:04:57.551Z,6.30
2022-12-04T17:07:25.566Z,6.30
2022-12-04T17:09:52.797Z,6.32
2022-12-04T17:12:20.040Z,6.28
2022-12-04T17:14:47.273Z,6.29
2022-12-04T17:17:14.525Z,6.27
2022-12-04T17:19:41.652Z,6.28
2022-12-04T17:22:08.925Z,6.28
2022-12-04T17:24:37.849Z,6.29
2022-12-04T17:27:07.857Z,6.29
2022-12-04T17:29:35.223Z,6.30
2022-12-04T17:32:02.376Z,6.33
2022-12-04T17:34:29.480Z,6.35
2022-12-04T17:36:56.874Z,6.36
2022-12-04T17:39:24.127Z,6.36
2022-12-04T17:41:51.372Z,6.31
2022-12-04T17:44:18.604Z,6.30
2022-12-04T17:46:45.882Z,6.29
2022-12-04T17:49:13.115Z,6.29
2022-12-04T17:51:40.391Z,6.31
2022-12-04T17:54:08.232Z,6.30
2022-12-04T17:56:35.500Z,6.32
2022-12-04T17:59:04.612Z,6.31
2022-12-04T18:01:32.337Z,6.28
2022-12-04T18:04:04.865Z,6.31
2022-12-04T18:06:42.202Z,6.26
2022-12-04T18:09:14.769Z,6.28
2022-12-04T18:11:47.171Z,6.31
2022-12-04T18:14:22.084Z,6.32
2022-12-04T18:16:53.254Z,6.37
2022-12-04T18:19:23.949Z,6.33
2022-12-04T18:21:51.955Z,6.39
2022-12-04T18:24:19.816Z,6.43
2022-12-04T18:26:51.310Z,6.46
2022-12-04T18:29:27.040Z,6.44
2022-12-04T18:31:54.622Z,6.42
2022-12-04T18:34:23.205Z,6.42
2022-12-04T18:36:50.770Z,6.39
2022-12-04T18:39:25.039Z,6.34
2022-12-04T18:41:56.393Z,6.30
2022-12-04T18:44:25.054Z,6.32
2022-12-04T18:46:53.440Z,6.31
2022-12-04T18:49:20.832Z,6.33
2022-12-04T18:51:50.284Z,6.34
2022-12-04T18:54:23.003Z,6.36
2022-12-04T18:56:53.054Z,6.38
2022-12-04T18:59:26.793Z,6.39
2022-12-04T19:01:55.293Z,6.41
2022-12-04T19:04:25.069Z,6.42
2022-12-04T19:06:56.713Z,6.43
2022-12-04T19:09:54.315Z,6.40
2022-12-04T19:12:16.064Z,6.39
2022-12-04T19:14:43.356Z,6.38
2022-12-04T19:17:11.317Z,6.35
2022-12-04T19:19:38.469Z,6.39
2022-12-04T19:22:05.763Z,6.38
2022-12-04T19:24:32.993Z,6.39
2022-12-04T19:27:01.757Z,6.41
2022-12-04T19:29:29.049Z,6.41
2022-12-04T19:31:59.241Z,6.40
2022-12-04T19:34:27.403Z,6.40
2022-12-04T19:36:55.225Z,6.38
2022-12-04T19:39:22.663Z,6.34
2022-12-04T19:41:49.984Z,6.31
2022-12-04T19:44:47.340Z,6.32
2022-12-04T19:47:04.710Z,6.36
2022-12-04T19:49:31.916Z,6.35
2022-12-04T19:51:59.063Z,6.35
2022-12-04T19:54:27.246Z,6.34
2022-12-04T19:56:54.558Z,6.31
2022-12-04T19:59:21.792Z,6.26
2022-12-04T20:01:49.131Z,6.23
2022-12-04T20:04:16.413Z,6.21
2022-12-04T20:06:46.403Z,6.26
2022-12-04T20:09:20.536Z,6.27
2022-12-04T20:11:48.376Z,6.26
2022-12-04T20:14:15.862Z,6.27
2022-12-04T20:16:43.443Z,6.26
2022-12-04T20:19:16.688Z,6.21
2022-12-04T20:21:45.987Z,6.20
2022-12-04T20:24:17.114Z,6.19
2022-12-04T20:26:46.631Z,6.21
2022-12-04T20:29:18.525Z,6.23
2022-12-04T20:31:47.335Z,6.26
2022-12-04T20:34:18.557Z,6.26
2022-12-04T20:36:48.527Z,6.28
2022-12-04T20:39:18.026Z,6.31
2022-12-04T20:41:45.303Z,6.31
2022-12-04T20:44:18.943Z,6.31
2022-12-04T20:46:47.286Z,6.33
2022-12-04T20:49:22.001Z,6.33
2022-12-04T20:51:51.825Z,6.33
2022-12-04T20:54:23.045Z,6.35
2022-12-04T20:56:52.868Z,6.37
2022-12-04T20:59:23.206Z,6.35
2022-12-04T21:01:52.036Z,6.36
2022-12-04T21:04:20.441Z,6.33
2022-12-04T21:06:48.193Z,6.35
2022-12-04T21:09:23.330Z,6.38
2022-12-04T21:11:54.616Z,6.36
2022-12-04T21:14:49.214Z,6.40
2022-12-04T21:17:19.325Z,6.41
2022-12-04T21:19:50.198Z,6.42
2022-12-04T21:22:19.211Z,6.43
2022-12-04T21:24:47.097Z,6.44
2022-12-04T21:27:20.507Z,6.43
2022-12-04T21:29:49.275Z,6.43
2022-12-04T21:32:19.386Z,6.43
2022-12-04T21:34:46.632Z,6.46
2022-12-04T21:37:14.245Z,6.47
2022-12-04T21:39:42.727Z,6.48
2022-12-04T21:42:36.382Z,6.48
2022-12-04T21:45:07.617Z,6.53
2022-12-04T21:47:36.106Z,6.53
2022-12-04T21:50:05.731Z,6.51
2022-12-04T21:52:32.891Z,6.53
2022-12-04T21:55:00.060Z,6.55
2022-12-04T21:57:28.271Z,6.53
2022-12-04T21:59:55.619Z,6.54
2022-12-04T22:02:23.413Z,6.54
2022-12-04T22:04:50.687Z,6.54
2022-12-04T22:07:17.856Z,6.55
2022-12-04T22:09:45.255Z,6.54
2022-12-04T22:12:41.029Z,6.53
2022-12-04T22:15:00.242Z,6.54
2022-12-04T22:17:30.022Z,6.55
2022-12-04T22:19:57.527Z,6.53
2022-12-04T22:22:25.005Z,6.55
2022-12-04T22:24:52.122Z,6.55
2022-12-04T22:27:19.306Z,6.56
2022-12-04T22:30:02.390Z,6.55
2022-12-04T22:32:31.716Z,6.51
2022-12-04T22:34:58.908Z,6.52
2022-12-04T22:37:26.122Z,6.53
2022-12-04T22:39:53.279Z,6.54
2022-12-04T22:42:20.450Z,6.54
2022-12-04T22:44:47.836Z,6.55
2022-12-04T22:47:15.134Z,6.53
2022-12-04T22:49:42.477Z,6.55
2022-12-04T22:52:09.771Z,6.55
2022-12-04T22:54:36.968Z,6.55
2022-12-04T22:57:04.348Z,6.56
2022-12-04T22:59:31.559Z,6.56
2022-12-04T23:02:00.202Z,6.55
2022-12-04T23:04:28.327Z,6.55
2022-12-04T23:06:55.553Z,6.54
2022-12-04T23:09:22.905Z,6.54
2022-12-04T23:11:55.348Z,6.55
2022-12-04T23:14:24.408Z,6.54
2022-12-04T23:16:51.602Z,6.54
2022-12-04T23:19:20.287Z,6.56
2022-12-04T23:21:55.056Z,6.54
2022-12-04T23:24:25.170Z,6.53
2022-12-04T23:26:52.359Z,6.55
2022-12-04T23:29:44.983Z,6.56
2022-12-04T23:32:06.749Z,6.57
2022-12-04T23:34:33.995Z,6.57
2022-12-04T23:37:01.199Z,6.56
2022-12-04T23:39:28.747Z,6.57
2022-12-04T23:41:55.867Z,6.59
2022-12-04T23:44:23.095Z,6.60
2022-12-04T23:46:50.408Z,6.61
2022-12-04T23:49:17.570Z,6.60
2022-12-04T23:51:44.823Z,6.61
2022-12-04T23:54:12.124Z,6.60
2022-12-04T23:56:39.344Z,6.60
2022-12-04T23:59:06.535Z,6.60
